createdAt,value
2024-05-09T00:00:48.121Z,13.12
2024-05-09T00:03:36.707Z,13.16
2024-05-09T00:06:05.811Z,13.16
2024-05-09T00:08:35.125Z,13.09
2024-05-09T00:11:03.968Z,13.07
2024-05-09T00:13:32.672Z,13.05
2024-05-09T00:16:01.218Z,13.06
2024-05-09T00:18:29.794Z,13.06
2024-05-09T00:20:58.295Z,13.03
2024-05-09T00:23:27.017Z,12.99
2024-05-09T00:25:55.559Z,12.98
2024-05-09T00:28:25.761Z,12.98
2024-05-09T00:30:54.571Z,13.00
2024-05-09T00:33:23.132Z,12.97
2024-05-09T00:35:51.479Z,12.93
2024-05-09T00:38:19.667Z,12.85
2024-05-09T00:40:47.922Z,12.81
2024-05-09T00:43:16.307Z,12.77
2024-05-09T00:45:44.762Z,12.76
2024-05-09T00:48:17.299Z,12.79
2024-05-09T00:50:48.336Z,12.84
2024-05-09T00:53:18.512Z,12.89
2024-05-09T00:55:47.774Z,12.90
2024-05-09T00:58:19.372Z,12.92
2024-05-09T01:00:49.154Z,12.94
2024-05-09T01:03:18.008Z,12.94
2024-05-09T01:05:46.502Z,12.86
2024-05-09T01:08:14.843Z,12.75
2024-05-09T01:10:46.105Z,12.66
2024-05-09T01:13:16.361Z,12.62
2024-05-09T01:15:44.573Z,12.62
2024-05-09T01:18:13.806Z,12.65
2024-05-09T01:20:44.682Z,12.65
2024-05-09T01:23:15.859Z,12.64
2024-05-09T01:25:46.532Z,12.60
2024-05-09T01:28:16.160Z,12.58
2024-05-09T01:30:44.758Z,12.59
2024-05-09T01:33:13.560Z,12.64
2024-05-09T01:35:43.071Z,12.71
2024-05-09T01:38:17.346Z,12.72
2024-05-09T01:40:48.041Z,12.71
2024-05-09T01:43:16.412Z,12.69
2024-05-09T01:45:44.902Z,12.64
2024-05-09T01:48:13.766Z,12.66
2024-05-09T01:50:43.301Z,12.70
2024-05-09T01:53:14.715Z,12.73
2024-05-09T01:55:44.582Z,12.73
2024-05-09T01:58:13.302Z,12.72
2024-05-09T02:00:43.134Z,12.72
2024-05-09T02:03:16.413Z,12.71
2024-05-09T02:05:49.814Z,12.72
2024-05-09T02:08:19.912Z,12.71
2024-05-09T02:10:50.032Z,12.63
2024-05-09T02:13:18.917Z,12.57
2024-05-09T02:15:47.373Z,12.55
2024-05-09T02:18:15.844Z,12.57
2024-05-09T02:20:44.401Z,12.59
2024-05-09T02:23:13.880Z,12.56
2024-05-09T02:25:42.479Z,12.56
2024-05-09T02:28:10.977Z,12.56
2024-05-09T02:30:41.468Z,12.54
2024-05-09T02:33:13.003Z,12.54
2024-05-09T02:35:44.228Z,12.56
2024-05-09T02:38:13.646Z,12.51
2024-05-09T02:40:42.139Z,12.43
2024-05-09T02:43:12.661Z,12.39
2024-05-09T02:45:41.890Z,12.32
2024-05-09T02:48:11.865Z,12.33
2024-05-09T02:50:41.227Z,12.39
2024-05-09T02:53:11.815Z,12.43
2024-05-09T02:55:41.242Z,12.45
2024-05-09T02:58:10.647Z,12.44
2024-05-09T03:00:41.620Z,12.45
2024-05-09T03:03:14.380Z,12.47
2024-05-09T03:05:46.799Z,12.48
2024-05-09T03:08:15.512Z,12.47
2024-05-09T03:10:43.956Z,12.44
2024-05-09T03:13:15.451Z,12.42
2024-05-09T03:15:45.176Z,12.43
2024-05-09T03:18:13.924Z,12.45
2024-05-09T03:20:44.622Z,12.41
2024-05-09T03:23:13.479Z,12.41
2024-05-09T03:25:42.065Z,12.41
2024-05-09T03:28:11.558Z,12.41
2024-05-09T03:30:42.479Z,12.39
2024-05-09T03:33:18.815Z,12.44
2024-05-09T03:35:49.534Z,12.47
2024-05-09T03:38:18.383Z,12.48
2024-05-09T03:40:48.182Z,12.47
2024-05-09T03:43:18.358Z,12.43
2024-05-09T03:45:49.305Z,12.39
2024-05-09T03:48:17.716Z,12.42
2024-05-09T03:50:47.142Z,12.51
2024-05-09T03:53:15.648Z,12.52
2024-05-09T03:55:44.329Z,12.53
2024-05-09T03:58:14.536Z,12.52
2024-05-09T04:00:43.451Z,12.56
2024-05-09T04:03:13.198Z,12.62
2024-05-09T04:05:45.992Z,12.67
2024-05-09T04:08:15.508Z,12.69
2024-05-09T04:10:44.370Z,12.73
2024-05-09T04:13:12.986Z,12.78
2024-05-09T04:15:41.528Z,12.87
2024-05-09T04:18:10.095Z,12.95
2024-05-09T04:20:40.747Z,13.02
2024-05-09T04:23:14.627Z,13.10
2024-05-09T04:25:45.308Z,13.21
2024-05-09T04:28:14.498Z,13.28
2024-05-09T04:30:43.595Z,13.34
2024-05-09T04:33:14.939Z,13.39
2024-05-09T04:35:44.184Z,13.42
2024-05-09T04:38:13.985Z,13.44
2024-05-09T04:40:43.870Z,13.51
2024-05-09T04:43:18.569Z,13.59
2024-05-09T04:45:47.043Z,13.67
2024-05-09T04:48:16.531Z,13.71
2024-05-09T04:50:45.470Z,13.73
2024-05-09T04:53:17.214Z,13.76
2024-05-09T04:55:46.301Z,13.81
2024-05-09T04:58:15.118Z,13.94
2024-05-09T05:00:44.196Z,14.09
2024-05-09T05:03:14.998Z,14.24
2024-05-09T05:05:47.143Z,14.40
2024-05-09T05:08:18.207Z,14.52
2024-05-09T05:10:48.717Z,14.61
2024-05-09T05:13:22.725Z,14.72
2024-05-09T05:15:56.943Z,14.83
2024-05-09T05:18:28.228Z,14.84
2024-05-09T05:20:57.848Z,14.89
2024-05-09T05:23:26.159Z,15.01
2024-05-09T05:25:55.434Z,15.12
2024-05-09T05:28:24.344Z,15.17
2024-05-09T05:30:52.696Z,15.16
2024-05-09T05:33:23.051Z,15.18
2024-05-09T05:35:51.782Z,15.08
2024-05-09T05:38:22.842Z,15.14
2024-05-09T05:40:53.406Z,15.24
2024-05-09T05:43:21.895Z,15.33
2024-05-09T05:45:50.727Z,15.46
2024-05-09T05:48:19.319Z,15.48
2024-05-09T05:50:48.192Z,15.45
2024-05-09T05:53:17.096Z,15.41
2024-05-09T05:55:45.668Z,15.38
2024-05-09T05:58:14.783Z,15.39
2024-05-09T06:00:43.452Z,15.42
2024-05-09T06:03:13.460Z,15.53
2024-05-09T06:05:48.772Z,15.72
2024-05-09T06:08:17.349Z,15.91
2024-05-09T06:10:46.454Z,16.02
2024-05-09T06:13:15.973Z,16.11
2024-05-09T06:15:45.083Z,16.30
2024-05-09T06:18:15.102Z,16.42
2024-05-09T06:20:44.462Z,16.52
2024-05-09T06:23:14.525Z,16.59
2024-05-09T06:25:44.072Z,16.66
2024-05-09T06:28:13.139Z,16.69
2024-05-09T06:30:43.155Z,16.77
2024-05-09T06:33:14.681Z,16.86
2024-05-09T06:35:46.320Z,16.87
2024-05-09T06:38:15.373Z,16.88
2024-05-09T06:40:44.642Z,16.90
2024-05-09T06:43:15.430Z,16.92
2024-05-09T06:45:47.632Z,16.84
2024-05-09T06:48:20.516Z,16.96
2024-05-09T06:50:49.857Z,17.18
2024-05-09T06:53:20.547Z,17.32
2024-05-09T06:55:49.104Z,17.38
2024-05-09T06:58:17.882Z,17.48
2024-05-09T07:00:46.249Z,17.55
2024-05-09T07:03:17.828Z,17.57
2024-05-09T07:05:49.213Z,17.46
2024-05-09T07:08:19.088Z,17.58
2024-05-09T07:10:48.000Z,17.63
2024-05-09T07:13:16.650Z,17.62
2024-05-09T07:15:45.339Z,17.59
2024-05-09T07:18:17.180Z,17.78
2024-05-09T07:20:50.750Z,18.00
2024-05-09T07:23:19.767Z,18.23
2024-05-09T07:25:48.237Z,18.44
2024-05-09T07:28:18.127Z,18.50
2024-05-09T07:30:46.930Z,18.45
2024-05-09T07:33:17.480Z,18.62
2024-05-09T07:35:46.124Z,18.64
2024-05-09T07:38:14.710Z,18.70
2024-05-09T07:40:43.490Z,18.62
2024-05-09T07:43:12.970Z,18.79
2024-05-09T07:45:50.726Z,19.02
2024-05-09T07:50:00.973Z,19.32
2024-05-09T07:53:49.681Z,19.48
2024-05-09T07:56:23.150Z,19.65
2024-05-09T07:58:54.195Z,19.88
2024-05-09T08:01:25.653Z,19.93
2024-05-09T08:03:55.299Z,20.00
2024-05-09T08:06:24.357Z,19.97
2024-05-09T08:08:52.745Z,19.86
2024-05-09T08:11:21.012Z,19.92
2024-05-09T08:13:49.302Z,19.77
2024-05-09T08:16:18.082Z,19.70
2024-05-09T08:18:46.475Z,19.79
2024-05-09T08:21:15.036Z,19.84
2024-05-09T08:23:43.177Z,20.01
2024-05-09T08:26:11.924Z,20.19
2024-05-09T08:28:40.248Z,20.41
2024-05-09T08:31:10.306Z,20.47
2024-05-09T08:33:45.255Z,20.42
2024-05-09T08:36:14.197Z,20.83
2024-05-09T08:38:42.495Z,21.00
2024-05-09T08:41:14.054Z,21.30
2024-05-09T08:43:44.479Z,21.58
2024-05-09T08:46:14.164Z,21.87
2024-05-09T08:48:45.623Z,21.94
2024-05-09T08:51:14.221Z,22.15
2024-05-09T08:53:42.501Z,22.17
2024-05-09T08:56:11.839Z,21.76
2024-05-09T08:58:42.079Z,21.56
2024-05-09T09:01:12.555Z,21.27
2024-05-09T09:03:41.659Z,21.01
2024-05-09T09:06:12.613Z,20.95
2024-05-09T09:08:41.400Z,20.72
2024-05-09T09:11:10.745Z,20.64
2024-05-09T09:13:39.067Z,20.61
2024-05-09T09:16:07.647Z,20.53
2024-05-09T09:18:36.083Z,20.64
2024-05-09T09:21:04.838Z,20.65
2024-05-09T09:23:33.479Z,20.74
2024-05-09T09:26:01.968Z,20.89
2024-05-09T09:28:30.232Z,20.95
2024-05-09T09:31:03.366Z,21.00
2024-05-09T09:33:32.778Z,21.02
2024-05-09T09:36:06.299Z,21.00
2024-05-09T09:38:40.074Z,21.21
2024-05-09T09:41:10.757Z,21.47
2024-05-09T09:43:40.855Z,21.64
2024-05-09T09:46:12.232Z,21.82
2024-05-09T09:48:41.938Z,22.19
2024-05-09T09:51:10.881Z,22.36
2024-05-09T09:53:39.935Z,22.68
2024-05-09T09:56:08.088Z,22.75
2024-05-09T09:58:38.848Z,23.11
2024-05-09T10:01:07.099Z,23.35
2024-05-09T10:03:35.599Z,23.63
2024-05-09T10:06:05.026Z,23.71
2024-05-09T10:08:34.271Z,23.75
2024-05-09T10:11:04.278Z,23.86
2024-05-09T10:13:34.031Z,23.89
2024-05-09T10:16:09.249Z,23.93
2024-05-09T10:18:39.376Z,23.83
2024-05-09T10:21:21.113Z,23.77
2024-05-09T10:24:00.583Z,23.56
2024-05-09T10:26:38.940Z,23.63
2024-05-09T10:29:18.477Z,23.73
2024-05-09T10:31:47.995Z,23.59
2024-05-09T10:34:23.434Z,23.47
2024-05-09T10:36:54.307Z,23.57
2024-05-09T10:39:23.094Z,23.62
2024-05-09T10:41:51.447Z,23.81
2024-05-09T10:44:21.525Z,23.81
2024-05-09T10:46:50.669Z,23.85
2024-05-09T10:49:19.218Z,23.99
2024-05-09T10:51:48.606Z,24.35
2024-05-09T10:54:17.394Z,24.49
2024-05-09T10:56:45.814Z,24.71
2024-05-09T10:59:13.941Z,24.60
2024-05-09T11:01:42.374Z,24.84
2024-05-09T11:04:10.918Z,25.01
2024-05-09T11:06:39.261Z,25.32
2024-05-09T11:09:07.776Z,25.29
2024-05-09T11:11:36.193Z,25.34
2024-05-09T11:14:14.022Z,25.13
2024-05-09T11:16:42.143Z,24.82
2024-05-09T11:19:14.515Z,24.97
2024-05-09T11:21:43.211Z,24.98
2024-05-09T11:24:11.894Z,25.09
2024-05-09T11:26:40.240Z,25.20
2024-05-09T11:29:08.679Z,25.64
2024-05-09T11:31:47.001Z,26.01
2024-05-09T11:34:16.262Z,26.28
2024-05-09T11:36:44.736Z,26.05
2024-05-09T11:39:14.613Z,26.14
2024-05-09T11:41:43.149Z,26.10
2024-05-09T11:44:11.398Z,26.02
2024-05-09T11:46:39.821Z,25.80
2024-05-09T11:49:09.681Z,24.84
2024-05-09T11:51:38.288Z,24.47
2024-05-09T11:54:06.681Z,23.89
2024-05-09T11:56:34.791Z,23.73
2024-05-09T11:59:03.384Z,23.59
2024-05-09T12:01:31.646Z,23.19
2024-05-09T12:04:00.141Z,23.11
2024-05-09T12:06:29.666Z,23.16
2024-05-09T12:08:57.970Z,23.26
2024-05-09T12:11:26.318Z,23.11
2024-05-09T12:13:54.517Z,23.01
2024-05-09T12:16:23.068Z,22.69
2024-05-09T12:18:52.001Z,22.77
2024-05-09T12:21:20.526Z,22.54
2024-05-09T12:23:48.805Z,22.59
2024-05-09T12:26:17.308Z,22.77
2024-05-09T12:28:45.696Z,22.85
2024-05-09T12:31:14.065Z,22.58
2024-05-09T12:33:42.339Z,22.70
2024-05-09T12:36:11.079Z,22.76
2024-05-09T12:38:40.930Z,22.68
2024-05-09T12:41:10.333Z,22.27
2024-05-09T12:43:38.752Z,22.34
2024-05-09T12:46:07.189Z,22.52
2024-05-09T12:48:35.745Z,22.66
2024-05-09T12:51:05.899Z,22.72
2024-05-09T12:53:36.355Z,22.72
2024-05-09T12:56:06.642Z,22.68
2024-05-09T12:58:36.923Z,22.66
2024-05-09T13:01:05.222Z,22.49
2024-05-09T13:03:33.784Z,22.29
2024-05-09T13:06:02.285Z,22.12
2024-05-09T13:08:30.728Z,21.98
2024-05-09T13:10:58.863Z,21.67
2024-05-09T13:13:29.011Z,21.76
2024-05-09T13:15:57.312Z,21.92
2024-05-09T13:18:26.003Z,22.11
2024-05-09T13:20:54.462Z,22.29
2024-05-09T13:23:22.817Z,22.33
2024-05-09T13:25:51.053Z,22.36
2024-05-09T13:28:21.115Z,22.38
2024-05-09T13:30:49.554Z,22.38
2024-05-09T13:33:18.073Z,22.36
2024-05-09T13:35:49.762Z,22.34
2024-05-09T13:38:20.732Z,22.14
2024-05-09T13:40:50.451Z,22.18
2024-05-09T13:43:20.858Z,22.18
2024-05-09T13:45:49.182Z,22.23
2024-05-09T13:48:18.154Z,22.25
2024-05-09T13:50:46.463Z,22.14
2024-05-09T13:53:15.073Z,21.92
2024-05-09T13:55:43.263Z,21.75
2024-05-09T13:58:11.530Z,21.51
2024-05-09T14:00:46.342Z,21.34
2024-05-09T14:03:19.838Z,21.33
2024-05-09T14:05:51.375Z,21.31
2024-05-09T14:08:22.122Z,21.35
2024-05-09T14:10:52.200Z,21.38
2024-05-09T14:13:20.685Z,21.29
2024-05-09T14:15:49.474Z,21.32
2024-05-09T14:18:18.001Z,21.37
2024-05-09T14:20:46.277Z,21.54
2024-05-09T14:23:14.959Z,21.59
2024-05-09T14:25:44.483Z,21.62
2024-05-09T14:28:14.235Z,21.64
2024-05-09T14:30:42.984Z,21.79
2024-05-09T14:33:12.496Z,22.00
2024-05-09T14:35:40.740Z,22.01
2024-05-09T14:38:10.058Z,22.03
2024-05-09T14:40:42.503Z,22.15
2024-05-09T14:43:14.636Z,22.21
2024-05-09T14:45:44.624Z,22.19
2024-05-09T14:48:15.363Z,21.93
2024-05-09T14:50:44.171Z,21.68
2024-05-09T14:53:13.853Z,21.38
2024-05-09T14:55:43.563Z,21.33
2024-05-09T14:58:13.169Z,21.18
2024-05-09T15:00:46.726Z,21.03
2024-05-09T15:03:22.314Z,21.08
2024-05-09T15:05:52.268Z,21.10
2024-05-09T15:08:20.883Z,21.13
2024-05-09T15:10:50.110Z,21.05
2024-05-09T15:13:20.457Z,20.96
2024-05-09T15:15:49.576Z,20.93
2024-05-09T15:18:18.138Z,20.93
2024-05-09T15:20:47.082Z,20.89
2024-05-09T15:23:15.553Z,20.85
2024-05-09T15:25:44.830Z,20.70
2024-05-09T15:28:13.632Z,20.38
2024-05-09T15:30:45.944Z,20.23
2024-05-09T15:33:15.274Z,20.17
2024-05-09T15:35:46.187Z,20.11
2024-05-09T15:38:15.621Z,20.09
2024-05-09T15:40:44.060Z,20.03
2024-05-09T15:43:12.624Z,20.00
2024-05-09T15:45:41.762Z,19.96
2024-05-09T15:48:11.353Z,19.87
2024-05-09T15:50:42.033Z,19.73
2024-05-09T15:53:13.216Z,19.59
2024-05-09T15:55:43.045Z,19.44
2024-05-09T15:58:11.600Z,19.31
2024-05-09T16:00:42.825Z,19.16
2024-05-09T16:03:14.236Z,19.03
2024-05-09T16:05:45.494Z,18.91
2024-05-09T16:08:15.178Z,18.79
2024-05-09T16:10:45.904Z,18.66
2024-05-09T16:13:16.618Z,18.53
2024-05-09T16:15:46.193Z,18.39
2024-05-09T16:18:14.993Z,18.28
2024-05-09T16:20:44.964Z,18.18
2024-05-09T16:23:14.810Z,18.10
2024-05-09T16:25:46.102Z,18.03
2024-05-09T16:28:14.724Z,17.97
2024-05-09T16:30:43.114Z,17.92
2024-05-09T16:33:11.973Z,17.86
2024-05-09T16:35:40.628Z,17.81
2024-05-09T16:38:09.052Z,17.74
2024-05-09T16:40:40.460Z,17.68
2024-05-09T16:43:12.013Z,17.60
2024-05-09T16:45:46.233Z,17.53
2024-05-09T16:48:14.734Z,17.45
2024-05-09T16:50:43.504Z,17.37
2024-05-09T16:53:13.568Z,17.29
2024-05-09T16:55:41.751Z,17.22
2024-05-09T16:58:12.405Z,17.14
2024-05-09T17:00:43.440Z,17.05
2024-05-09T17:03:15.270Z,16.97
2024-05-09T17:05:46.927Z,16.88
2024-05-09T17:08:19.946Z,16.79
2024-05-09T17:10:49.448Z,16.70
2024-05-09T17:13:19.011Z,16.60
2024-05-09T17:15:49.531Z,16.50
2024-05-09T17:18:18.189Z,16.40
2024-05-09T17:20:46.504Z,16.30
2024-05-09T17:23:14.838Z,16.21
2024-05-09T17:25:43.505Z,16.09
2024-05-09T17:28:12.462Z,15.99
2024-05-09T17:30:42.497Z,15.88
2024-05-09T17:33:13.019Z,15.75
2024-05-09T17:35:41.921Z,15.64
2024-05-09T17:38:10.231Z,15.52
2024-05-09T17:40:39.238Z,15.40
2024-05-09T17:43:10.430Z,15.28
2024-05-09T17:45:41.064Z,15.18
2024-05-09T17:48:11.927Z,15.07
2024-05-09T17:50:41.913Z,14.98
2024-05-09T17:53:10.834Z,14.89
2024-05-09T17:55:40.119Z,14.80
2024-05-09T17:58:08.687Z,14.71
2024-05-09T18:00:40.274Z,14.63
2024-05-09T18:03:12.477Z,14.55
2024-05-09T18:05:44.271Z,14.46
2024-05-09T18:08:13.534Z,14.39
2024-05-09T18:10:42.866Z,14.33
2024-05-09T18:13:12.887Z,14.29
2024-05-09T18:15:41.665Z,14.24
2024-05-09T18:18:11.671Z,14.21
2024-05-09T18:20:44.265Z,14.16
2024-05-09T18:23:17.551Z,14.11
2024-05-09T18:25:48.045Z,14.05
2024-05-09T18:28:17.330Z,13.99
2024-05-09T18:30:46.489Z,13.91
2024-05-09T18:33:15.781Z,13.85
2024-05-09T18:35:45.415Z,13.78
2024-05-09T18:38:14.161Z,13.70
2024-05-09T18:40:44.758Z,13.62
2024-05-09T18:43:15.620Z,13.54
2024-05-09T18:45:45.140Z,13.45
2024-05-09T18:48:13.623Z,13.38
2024-05-09T18:50:42.249Z,13.32
2024-05-09T18:53:12.133Z,13.25
2024-05-09T18:55:44.776Z,13.16
2024-05-09T18:58:13.390Z,13.09
2024-05-09T19:00:44.159Z,13.03
2024-05-09T19:03:15.672Z,12.95
2024-05-09T19:05:46.135Z,12.89
2024-05-09T19:08:15.624Z,12.83
2024-05-09T19:10:45.803Z,12.76
2024-05-09T19:13:15.071Z,12.69
2024-05-09T19:15:44.498Z,12.64
2024-05-09T19:18:14.264Z,12.63
2024-05-09T19:20:43.813Z,12.59
2024-05-09T19:23:12.447Z,12.54
2024-05-09T19:25:40.868Z,12.50
2024-05-09T19:28:09.404Z,12.46
2024-05-09T19:30:41.330Z,12.43
2024-05-09T19:33:14.762Z,12.38
2024-05-09T19:35:43.961Z,12.32
2024-05-09T19:38:12.289Z,12.26
2024-05-09T19:40:41.676Z,12.20
2024-05-09T19:43:11.067Z,12.14
2024-05-09T19:45:39.684Z,12.11
2024-05-09T19:48:08.520Z,12.09
2024-05-09T19:50:42.515Z,12.05
2024-05-09T19:53:14.696Z,11.99
2024-05-09T19:55:43.470Z,11.95
2024-05-09T19:58:12.860Z,11.90
2024-05-09T20:00:43.627Z,11.85
2024-05-09T20:03:15.093Z,11.81
2024-05-09T20:05:46.714Z,11.78
2024-05-09T20:08:16.777Z,11.78
2024-05-09T20:10:45.103Z,11.75
2024-05-09T20:13:13.671Z,11.70
2024-05-09T20:15:42.440Z,11.66
2024-05-09T20:18:11.429Z,11.61
2024-05-09T20:20:42.998Z,11.56
2024-05-09T20:23:13.907Z,11.52
2024-05-09T20:25:42.677Z,11.51
2024-05-09T20:28:11.243Z,11.47
2024-05-09T20:30:39.995Z,11.42
2024-05-09T20:33:09.691Z,11.38
2024-05-09T20:35:38.584Z,11.33
2024-05-09T20:38:07.202Z,11.28
2024-05-09T20:40:38.456Z,11.24
2024-05-09T20:43:11.675Z,11.21
2024-05-09T20:45:40.684Z,11.16
2024-05-09T20:48:09.834Z,11.11
2024-05-09T20:50:41.387Z,11.05
2024-05-09T20:53:13.501Z,11.01
2024-05-09T20:55:44.399Z,10.96
2024-05-09T20:58:13.925Z,10.92
2024-05-09T21:00:45.476Z,10.91
2024-05-09T21:03:17.036Z,10.86
2024-05-09T21:05:47.814Z,10.81
2024-05-09T21:08:16.689Z,10.74
2024-05-09T21:10:44.966Z,10.69
2024-05-09T21:13:13.408Z,10.64
2024-05-09T21:15:41.845Z,10.62
2024-05-09T21:18:10.368Z,10.60
2024-05-09T21:20:38.711Z,10.55
2024-05-09T21:23:06.962Z,10.50
2024-05-09T21:25:35.152Z,10.47
2024-05-09T21:28:03.946Z,10.44
2024-05-09T21:30:41.058Z,10.44
2024-05-09T21:33:13.455Z,10.41
2024-05-09T21:35:44.616Z,10.40
2024-05-09T21:38:14.713Z,10.42
2024-05-09T21:40:44.932Z,10.41
2024-05-09T21:43:14.418Z,10.37
2024-05-09T21:45:43.431Z,10.35
2024-05-09T21:48:13.302Z,10.33
2024-05-09T21:50:42.600Z,10.33
2024-05-09T21:53:12.592Z,10.34
2024-05-09T21:55:42.547Z,10.31
2024-05-09T21:58:14.689Z,10.26
2024-05-09T22:00:45.587Z,10.22
2024-05-09T22:03:14.331Z,10.17
2024-05-09T22:05:44.919Z,10.15
2024-05-09T22:08:13.938Z,10.14
2024-05-09T22:10:42.672Z,10.10
2024-05-09T22:13:11.221Z,10.04
2024-05-09T22:15:40.529Z,10.00
2024-05-09T22:18:10.995Z,9.96
2024-05-09T22:20:45.492Z,9.92
2024-05-09T22:23:15.731Z,9.91
2024-05-09T22:25:44.599Z,9.87
2024-05-09T22:28:15.381Z,9.82
2024-05-09T22:30:48.225Z,9.77
2024-05-09T22:33:16.562Z,9.71
2024-05-09T22:35:47.326Z,9.66
2024-05-09T22:38:15.511Z,9.65
2024-05-09T22:40:48.332Z,9.62
2024-05-09T22:43:20.794Z,9.56
2024-05-09T22:45:50.996Z,9.51
2024-05-09T22:48:19.744Z,9.47
2024-05-09T22:50:48.572Z,9.45
2024-05-09T22:53:17.010Z,9.43
2024-05-09T22:55:45.374Z,9.41
2024-05-09T22:58:13.607Z,9.36
2024-05-09T23:00:42.186Z,9.34
2024-05-09T23:03:10.590Z,9.30
2024-05-09T23:05:39.141Z,9.27
2024-05-09T23:08:08.605Z,9.30
2024-05-09T23:10:38.086Z,9.29
2024-05-09T23:13:07.918Z,9.26
2024-05-09T23:15:39.818Z,9.24
2024-05-09T23:18:08.587Z,9.22
2024-05-09T23:20:39.428Z,9.21
2024-05-09T23:23:10.360Z,9.23
2024-05-09T23:25:43.800Z,9.21
2024-05-09T23:28:12.698Z,9.18
2024-05-09T23:30:41.980Z,9.15
2024-05-09T23:33:12.899Z,9.10
2024-05-09T23:35:45.966Z,9.07
2024-05-09T23:38:14.529Z,9.06
2024-05-09T23:40:43.524Z,9.02
2024-05-09T23:43:14.164Z,8.96
2024-05-09T23:45:43.208Z,8.91
2024-05-09T23:48:11.872Z,8.86
2024-05-09T23:50:41.019Z,8.83
2024-05-09T23:53:10.978Z,8.82
2024-05-09T23:55:40.570Z,8.79
2024-05-09T23:58:11.286Z,8.74
